sensor_id;sensor_type;location;lat;lon;timestamp;temperature;humidity
36716;DHT22;22699;51.034;3.730;2023-02-18T00:38:10;11.70;99.90
36716;DHT22;22699;51.034;3.730;2023-02-18T00:45:07;11.80;99.90
36716;DHT22;22699;51.034;3.730;2023-02-18T00:47:59;11.80;99.90
36716;DHT22;22699;51.034;3.730;2023-02-18T00:54:09;11.90;99.90
36716;DHT22;22699;51.034;3.730;2023-02-18T00:57:22;11.40;99.90
36716;DHT22;22699;51.034;3.730;2023-02-18T00:59:52;11.70;99.90
36716;DHT22;22699;51.034;3.730;2023-02-18T01:02:24;11.70;99.90
36716;DHT22;22699;51.034;3.730;2023-02-18T01:04:58;12.10;99.90
36716;DHT22;22699;51.034;3.730;2023-02-18T01:07:50;12.10;99.90
36716;DHT22;22699;51.034;3.730;2023-02-18T01:10:29;11.90;99.90
36716;DHT22;22699;51.034;3.730;2023-02-18T01:13:16;11.40;99.90
36716;DHT22;22699;51.034;3.730;2023-02-18T01:15:58;11.80;99.90
36716;DHT22;22699;51.034;3.730;2023-02-18T01:18:53;11.80;99.90
36716;DHT22;22699;51.034;3.730;2023-02-18T01:21:30;12.10;99.90
36716;DHT22;22699;51.034;3.730;2023-02-18T01:24:02;11.90;99.90
36716;DHT22;22699;51.034;3.730;2023-02-18T01:26:34;11.70;99.90
36716;DHT22;22699;51.034;3.730;2023-02-18T01:29:00;11.60;99.90
36716;DHT22;22699;51.034;3.730;2023-02-18T01:31:35;12.20;99.90
36716;DHT22;22699;51.034;3.730;2023-02-18T01:34:05;11.50;99.90
36716;DHT22;22699;51.034;3.730;2023-02-18T01:36:31;11.30;99.90
36716;DHT22;22699;51.034;3.730;2023-02-18T01:39:09;11.60;99.90
36716;DHT22;22699;51.034;3.730;2023-02-18T01:41:44;11.60;99.90
36716;DHT22;22699;51.034;3.730;2023-02-18T01:44:23;11.90;99.90
36716;DHT22;22699;51.034;3.730;2023-02-18T01:47:02;11.50;99.90
36716;DHT22;22699;51.034;3.730;2023-02-18T01:49:36;11.50;99.90
36716;DHT22;22699;51.034;3.730;2023-02-18T01:52:19;11.50;99.90
36716;DHT22;22699;51.034;3.730;2023-02-18T01:55:07;11.50;99.90
36716;DHT22;22699;51.034;3.730;2023-02-18T01:57:36;11.50;99.90
36716;DHT22;22699;51.034;3.730;2023-02-18T02:00:08;11.40;99.90
36716;DHT22;22699;51.034;3.730;2023-02-18T02:02:39;11.70;99.90
36716;DHT22;22699;51.034;3.730;2023-02-18T02:05:08;11.30;99.90
36716;DHT22;22699;51.034;3.730;2023-02-18T02:07:40;11.50;99.90
36716;DHT22;22699;51.034;3.730;2023-02-18T02:10:15;11.50;99.90
36716;DHT22;22699;51.034;3.730;2023-02-18T02:13:17;11.50;99.90
36716;DHT22;22699;51.034;3.730;2023-02-18T02:16:08;11.70;99.90
36716;DHT22;22699;51.034;3.730;2023-02-18T02:19:13;11.50;99.90
36716;DHT22;22699;51.034;3.730;2023-02-18T02:25:02;11.50;99.90
36716;DHT22;22699;51.034;3.730;2023-02-18T02:28:14;11.30;99.90
36716;DHT22;22699;51.034;3.730;2023-02-18T02:40:19;11.50;99.90
36716;DHT22;22699;51.034;3.730;2023-02-18T02:46:02;11.40;99.90
36716;DHT22;22699;51.034;3.730;2023-02-18T02:52:02;11.40;99.90
36716;DHT22;22699;51.034;3.730;2023-02-18T02:54:52;11.40;99.90
36716;DHT22;22699;51.034;3.730;2023-02-18T03:00:00;11.30;99.90
36716;DHT22;22699;51.034;3.730;2023-02-18T03:06:00;11.30;99.90
36716;DHT22;22699;51.034;3.730;2023-02-18T03:12:30;11.20;99.90
36716;DHT22;22699;51.034;3.730;2023-02-18T03:18:09;11.20;99.90
36716;DHT22;22699;51.034;3.730;2023-02-18T03:20:38;11.80;99.90
36716;DHT22;22699;51.034;3.730;2023-02-18T03:23:17;10.90;99.90
36716;DHT22;22699;51.034;3.730;2023-02-18T03:25:55;11.40;99.90
36716;DHT22;22699;51.034;3.730;2023-02-18T03:28:31;11.10;99.90
36716;DHT22;22699;51.034;3.730;2023-02-18T03:31:12;11.00;99.90
36716;DHT22;22699;51.034;3.730;2023-02-18T03:33:45;11.00;99.90
36716;DHT22;22699;51.034;3.730;2023-02-18T03:36:18;11.00;99.90
36716;DHT22;22699;51.034;3.730;2023-02-18T03:39:03;11.10;99.90
36716;DHT22;22699;51.034;3.730;2023-02-18T03:41:37;11.00;99.90
36716;DHT22;22699;51.034;3.730;2023-02-18T03:44:08;10.90;99.90
36716;DHT22;22699;51.034;3.730;2023-02-18T03:46:54;10.90;99.90
36716;DHT22;22699;51.034;3.730;2023-02-18T03:49:22;10.90;99.90
36716;DHT22;22699;51.034;3.730;2023-02-18T03:52:09;11.00;99.90
36716;DHT22;22699;51.034;3.730;2023-02-18T03:54:39;11.00;99.90
36716;DHT22;22699;51.034;3.730;2023-02-18T03:57:07;11.00;99.90
36716;DHT22;22699;51.034;3.730;2023-02-18T03:59:34;11.00;99.90
36716;DHT22;22699;51.034;3.730;2023-02-18T04:02:06;11.00;99.90
36716;DHT22;22699;51.034;3.730;2023-02-18T04:04:32;11.00;99.90
36716;DHT22;22699;51.034;3.730;2023-02-18T04:07:07;10.90;99.90
36716;DHT22;22699;51.034;3.730;2023-02-18T04:09:39;10.90;99.90
36716;DHT22;22699;51.034;3.730;2023-02-18T04:12:08;11.00;99.90
36716;DHT22;22699;51.034;3.730;2023-02-18T04:14:35;11.00;99.90
36716;DHT22;22699;51.034;3.730;2023-02-18T04:17:06;10.90;99.90
36716;DHT22;22699;51.034;3.730;2023-02-18T04:19:35;10.90;99.90
36716;DHT22;22699;51.034;3.730;2023-02-18T04:22:01;11.00;99.90
36716;DHT22;22699;51.034;3.730;2023-02-18T04:24:45;11.00;99.90
36716;DHT22;22699;51.034;3.730;2023-02-18T04:27:14;10.80;99.90
36716;DHT22;22699;51.034;3.730;2023-02-18T04:29:54;11.10;99.90
36716;DHT22;22699;51.034;3.730;2023-02-18T04:32:26;11.00;99.90
36716;DHT22;22699;51.034;3.730;2023-02-18T04:34:55;10.90;99.90
36716;DHT22;22699;51.034;3.730;2023-02-18T04:37:20;10.80;99.90
36716;DHT22;22699;51.034;3.730;2023-02-18T04:39:49;10.90;99.90
36716;DHT22;22699;51.034;3.730;2023-02-18T04:42:24;11.00;99.90
36716;DHT22;22699;51.034;3.730;2023-02-18T04:44:53;11.00;99.90
36716;DHT22;22699;51.034;3.730;2023-02-18T04:47:26;10.70;99.90
36716;DHT22;22699;51.034;3.730;2023-02-18T04:49:54;10.80;99.90
36716;DHT22;22699;51.034;3.730;2023-02-18T04:52:32;10.80;99.90
36716;DHT22;22699;51.034;3.730;2023-02-18T04:54:57;10.90;99.90
36716;DHT22;22699;51.034;3.730;2023-02-18T04:57:28;10.80;99.90
36716;DHT22;22699;51.034;3.730;2023-02-18T05:00:06;10.90;99.90
36716;DHT22;22699;51.034;3.730;2023-02-18T05:02:35;10.90;99.90
36716;DHT22;22699;51.034;3.730;2023-02-18T05:05:03;10.90;99.90
36716;DHT22;22699;51.034;3.730;2023-02-18T05:07:30;10.80;99.90
36716;DHT22;22699;51.034;3.730;2023-02-18T05:09:59;10.90;99.90
36716;DHT22;22699;51.034;3.730;2023-02-18T05:12:31;10.70;99.90
36716;DHT22;22699;51.034;3.730;2023-02-18T05:14:59;10.80;99.90
36716;DHT22;22699;51.034;3.730;2023-02-18T05:17:27;10.90;99.90
36716;DHT22;22699;51.034;3.730;2023-02-18T05:20:04;11.00;99.90
36716;DHT22;22699;51.034;3.730;2023-02-18T05:22:41;10.80;99.90
36716;DHT22;22699;51.034;3.730;2023-02-18T05:25:09;10.80;99.90
36716;DHT22;22699;51.034;3.730;2023-02-18T05:27:36;11.00;99.90
36716;DHT22;22699;51.034;3.730;2023-02-18T05:30:04;11.30;99.90
36716;DHT22;22699;51.034;3.730;2023-02-18T05:32:31;11.10;99.90
36716;DHT22;22699;51.034;3.730;2023-02-18T05:35:00;11.10;99.90
36716;DHT22;22699;51.034;3.730;2023-02-18T05:40:51;10.70;99.90
36716;DHT22;22699;51.034;3.730;2023-02-18T05:43:19;11.20;99.90
36716;DHT22;22699;51.034;3.730;2023-02-18T05:45:54;11.10;99.90
36716;DHT22;22699;51.034;3.730;2023-02-18T05:51:26;11.10;99.90
36716;DHT22;22699;51.034;3.730;2023-02-18T05:53:54;11.30;99.90
36716;DHT22;22699;51.034;3.730;2023-02-18T05:56:20;11.20;99.90
36716;DHT22;22699;51.034;3.730;2023-02-18T05:58:47;11.10;99.90
36716;DHT22;22699;51.034;3.730;2023-02-18T06:01:25;11.40;99.90
36716;DHT22;22699;51.034;3.730;2023-02-18T06:04:02;11.10;99.90
36716;DHT22;22699;51.034;3.730;2023-02-18T06:06:40;11.70;99.90
36716;DHT22;22699;51.034;3.730;2023-02-18T06:09:07;11.10;99.90
36716;DHT22;22699;51.034;3.730;2023-02-18T06:11:34;11.10;99.90
36716;DHT22;22699;51.034;3.730;2023-02-18T06:14:08;11.10;99.90
36716;DHT22;22699;51.034;3.730;2023-02-18T06:16:37;11.20;99.90
36716;DHT22;22699;51.034;3.730;2023-02-18T06:19:12;11.40;99.90
36716;DHT22;22699;51.034;3.730;2023-02-18T06:21:46;11.20;99.90
36716;DHT22;22699;51.034;3.730;2023-02-18T06:24:18;11.10;99.90
36716;DHT22;22699;51.034;3.730;2023-02-18T06:26:51;11.10;99.90
36716;DHT22;22699;51.034;3.730;2023-02-18T06:29:40;11.30;99.90
36716;DHT22;22699;51.034;3.730;2023-02-18T06:32:14;11.10;99.90
36716;DHT22;22699;51.034;3.730;2023-02-18T06:34:44;10.70;99.90
36716;DHT22;22699;51.034;3.730;2023-02-18T06:37:10;11.10;99.90
36716;DHT22;22699;51.034;3.730;2023-02-18T06:39:38;11.50;99.90
36716;DHT22;22699;51.034;3.730;2023-02-18T06:42:08;11.20;99.90
36716;DHT22;22699;51.034;3.730;2023-02-18T06:44:33;11.20;99.90
36716;DHT22;22699;51.034;3.730;2023-02-18T06:47:00;11.20;99.90
36716;DHT22;22699;51.034;3.730;2023-02-18T06:49:26;11.20;99.90
36716;DHT22;22699;51.034;3.730;2023-02-18T06:51:51;11.10;99.90
36716;DHT22;22699;51.034;3.730;2023-02-18T06:54:29;11.20;99.90
36716;DHT22;22699;51.034;3.730;2023-02-18T06:56:58;11.10;99.90
36716;DHT22;22699;51.034;3.730;2023-02-18T06:59:23;11.30;99.90
36716;DHT22;22699;51.034;3.730;2023-02-18T07:01:49;11.40;99.90
36716;DHT22;22699;51.034;3.730;2023-02-18T07:04:17;11.10;99.90
36716;DHT22;22699;51.034;3.730;2023-02-18T07:06:47;11.10;99.90
36716;DHT22;22699;51.034;3.730;2023-02-18T07:09:14;11.10;99.90
36716;DHT22;22699;51.034;3.730;2023-02-18T07:11:42;11.10;99.90
36716;DHT22;22699;51.034;3.730;2023-02-18T07:14:08;11.20;99.90
36716;DHT22;22699;51.034;3.730;2023-02-18T07:16:33;11.20;99.90
36716;DHT22;22699;51.034;3.730;2023-02-18T07:19:00;11.90;99.90
36716;DHT22;22699;51.034;3.730;2023-02-18T07:21:26;11.40;99.90
36716;DHT22;22699;51.034;3.730;2023-02-18T07:23:51;11.60;99.90
36716;DHT22;22699;51.034;3.730;2023-02-18T07:26:17;11.50;99.90
36716;DHT22;22699;51.034;3.730;2023-02-18T07:28:43;11.60;99.90
36716;DHT22;22699;51.034;3.730;2023-02-18T07:31:09;11.60;99.90
36716;DHT22;22699;51.034;3.730;2023-02-18T07:33:35;11.60;99.90
36716;DHT22;22699;51.034;3.730;2023-02-18T07:36:02;11.60;99.90
36716;DHT22;22699;51.034;3.730;2023-02-18T07:38:28;11.70;99.90
36716;DHT22;22699;51.034;3.730;2023-02-18T07:40:57;11.70;99.90
36716;DHT22;22699;51.034;3.730;2023-02-18T07:43:23;11.70;99.90
36716;DHT22;22699;51.034;3.730;2023-02-18T07:45:51;11.70;99.90
36716;DHT22;22699;51.034;3.730;2023-02-18T07:48:20;11.60;99.90
36716;DHT22;22699;51.034;3.730;2023-02-18T07:50:49;11.60;99.90
36716;DHT22;22699;51.034;3.730;2023-02-18T07:53:15;11.60;99.90
36716;DHT22;22699;51.034;3.730;2023-02-18T07:55:41;11.50;99.90
36716;DHT22;22699;51.034;3.730;2023-02-18T07:58:27;11.50;99.90
36716;DHT22;22699;51.034;3.730;2023-02-18T08:00:54;11.50;99.90
36716;DHT22;22699;51.034;3.730;2023-02-18T08:03:21;11.60;99.90
36716;DHT22;22699;51.034;3.730;2023-02-18T08:05:48;11.50;99.90
36716;DHT22;22699;51.034;3.730;2023-02-18T08:08:16;11.60;99.90
36716;DHT22;22699;51.034;3.730;2023-02-18T08:10:42;11.70;99.90
36716;DHT22;22699;51.034;3.730;2023-02-18T08:13:08;11.50;99.90
36716;DHT22;22699;51.034;3.730;2023-02-18T08:15:36;11.60;99.90
36716;DHT22;22699;51.034;3.730;2023-02-18T08:18:06;11.50;99.90
36716;DHT22;22699;51.034;3.730;2023-02-18T08:20:37;11.60;99.90
36716;DHT22;22699;51.034;3.730;2023-02-18T08:23:04;11.60;99.90
36716;DHT22;22699;51.034;3.730;2023-02-18T08:25:31;11.50;99.90
36716;DHT22;22699;51.034;3.730;2023-02-18T08:27:58;11.30;99.90
36716;DHT22;22699;51.034;3.730;2023-02-18T08:30:24;11.30;99.90
36716;DHT22;22699;51.034;3.730;2023-02-18T08:32:50;11.50;99.90
36716;DHT22;22699;51.034;3.730;2023-02-18T08:35:16;11.50;99.90
36716;DHT22;22699;51.034;3.730;2023-02-18T08:37:42;11.60;99.90
36716;DHT22;22699;51.034;3.730;2023-02-18T08:40:08;11.60;99.90
36716;DHT22;22699;51.034;3.730;2023-02-18T08:42:36;11.40;99.90
36716;DHT22;22699;51.034;3.730;2023-02-18T08:45:05;11.40;99.90
36716;DHT22;22699;51.034;3.730;2023-02-18T08:47:30;11.40;99.90
36716;DHT22;22699;51.034;3.730;2023-02-18T08:49:56;11.50;99.90
36716;DHT22;22699;51.034;3.730;2023-02-18T08:52:22;11.60;99.90
36716;DHT22;22699;51.034;3.730;2023-02-18T08:54:49;11.50;99.90
36716;DHT22;22699;51.034;3.730;2023-02-18T08:57:15;11.50;99.90
36716;DHT22;22699;51.034;3.730;2023-02-18T08:59:41;11.40;99.90
36716;DHT22;22699;51.034;3.730;2023-02-18T09:02:08;11.40;99.90
36716;DHT22;22699;51.034;3.730;2023-02-18T09:04:34;11.50;99.90
36716;DHT22;22699;51.034;3.730;2023-02-18T09:07:02;11.60;99.90
36716;DHT22;22699;51.034;3.730;2023-02-18T09:09:28;11.70;99.90
36716;DHT22;22699;51.034;3.730;2023-02-18T09:11:56;11.60;99.90
36716;DHT22;22699;51.034;3.730;2023-02-18T09:14:22;11.80;99.90
36716;DHT22;22699;51.034;3.730;2023-02-18T09:16:48;11.90;99.90
36716;DHT22;22699;51.034;3.730;2023-02-18T09:19:15;12.30;99.90
36716;DHT22;22699;51.034;3.730;2023-02-18T09:21:40;11.90;99.90
36716;DHT22;22699;51.034;3.730;2023-02-18T09:24:06;12.00;99.90
36716;DHT22;22699;51.034;3.730;2023-02-18T09:26:33;12.00;99.90
36716;DHT22;22699;51.034;3.730;2023-02-18T09:28:59;12.00;99.90
36716;DHT22;22699;51.034;3.730;2023-02-18T09:31:28;11.90;99.90
36716;DHT22;22699;51.034;3.730;2023-02-18T09:33:58;12.10;99.90
36716;DHT22;22699;51.034;3.730;2023-02-18T09:36:27;12.00;99.90
36716;DHT22;22699;51.034;3.730;2023-02-18T09:38:53;12.10;99.90
36716;DHT22;22699;51.034;3.730;2023-02-18T09:41:42;11.90;99.90
36716;DHT22;22699;51.034;3.730;2023-02-18T09:44:29;12.00;99.90
36716;DHT22;22699;51.034;3.730;2023-02-18T09:47:10;12.10;99.90
36716;DHT22;22699;51.034;3.730;2023-02-18T09:49:40;12.20;99.90
36716;DHT22;22699;51.034;3.730;2023-02-18T09:52:30;12.30;99.90
36716;DHT22;22699;51.034;3.730;2023-02-18T09:54:57;12.20;99.90
36716;DHT22;22699;51.034;3.730;2023-02-18T09:57:41;12.30;99.90
36716;DHT22;22699;51.034;3.730;2023-02-18T10:00:28;12.10;99.90
36716;DHT22;22699;51.034;3.730;2023-02-18T10:02:57;12.10;99.90
36716;DHT22;22699;51.034;3.730;2023-02-18T10:05:26;12.10;99.90
36716;DHT22;22699;51.034;3.730;2023-02-18T10:07:57;12.20;99.90
36716;DHT22;22699;51.034;3.730;2023-02-18T10:13:23;12.30;99.90
36716;DHT22;22699;51.034;3.730;2023-02-18T10:15:50;12.40;99.90
36716;DHT22;22699;51.034;3.730;2023-02-18T10:18:41;12.30;99.90
36716;DHT22;22699;51.034;3.730;2023-02-18T10:21:09;12.20;99.90
36716;DHT22;22699;51.034;3.730;2023-02-18T10:23:41;12.10;99.90
36716;DHT22;22699;51.034;3.730;2023-02-18T10:26:14;12.00;99.90
36716;DHT22;22699;51.034;3.730;2023-02-18T10:28:41;12.10;99.90
36716;DHT22;22699;51.034;3.730;2023-02-18T10:31:09;12.20;99.90
36716;DHT22;22699;51.034;3.730;2023-02-18T10:33:46;12.40;99.90
36716;DHT22;22699;51.034;3.730;2023-02-18T10:36:32;12.40;99.90
36716;DHT22;22699;51.034;3.730;2023-02-18T10:50:37;12.30;99.90
36716;DHT22;22699;51.034;3.730;2023-02-18T10:55:46;12.30;99.90
36716;DHT22;22699;51.034;3.730;2023-02-18T10:58:49;12.20;99.90
36716;DHT22;22699;51.034;3.730;2023-02-18T11:01:19;12.50;99.90
36716;DHT22;22699;51.034;3.730;2023-02-18T11:03:51;12.60;99.90
36716;DHT22;22699;51.034;3.730;2023-02-18T11:06:31;12.60;99.90
36716;DHT22;22699;51.034;3.730;2023-02-18T11:08:58;12.70;99.90
36716;DHT22;22699;51.034;3.730;2023-02-18T11:11:37;12.80;99.90
36716;DHT22;22699;51.034;3.730;2023-02-18T11:14:06;13.00;99.90
36716;DHT22;22699;51.034;3.730;2023-02-18T11:16:43;12.80;99.90
36716;DHT22;22699;51.034;3.730;2023-02-18T11:19:37;12.70;99.90
36716;DHT22;22699;51.034;3.730;2023-02-18T11:24:38;12.70;99.90
36716;DHT22;22699;51.034;3.730;2023-02-18T11:27:23;12.60;99.90
36716;DHT22;22699;51.034;3.730;2023-02-18T11:29:52;12.50;99.90
36716;DHT22;22699;51.034;3.730;2023-02-18T11:32:18;12.70;99.90
36716;DHT22;22699;51.034;3.730;2023-02-18T11:34:44;12.80;99.90
36716;DHT22;22699;51.034;3.730;2023-02-18T11:37:19;12.90;99.90
36716;DHT22;22699;51.034;3.730;2023-02-18T11:39:49;13.00;99.90
36716;DHT22;22699;51.034;3.730;2023-02-18T11:42:18;12.70;99.90
36716;DHT22;22699;51.034;3.730;2023-02-18T11:44:59;12.70;99.90
36716;DHT22;22699;51.034;3.730;2023-02-18T11:47:35;12.80;99.90
36716;DHT22;22699;51.034;3.730;2023-02-18T11:50:17;12.70;99.90
36716;DHT22;22699;51.034;3.730;2023-02-18T11:52:49;12.80;99.90
36716;DHT22;22699;51.034;3.730;2023-02-18T11:55:19;12.70;99.90
36716;DHT22;22699;51.034;3.730;2023-02-18T12:02:43;12.90;99.90
36716;DHT22;22699;51.034;3.730;2023-02-18T12:05:23;13.00;99.90
36716;DHT22;22699;51.034;3.730;2023-02-18T12:07:54;13.20;99.90
36716;DHT22;22699;51.034;3.730;2023-02-18T12:10:35;13.40;99.90
36716;DHT22;22699;51.034;3.730;2023-02-18T12:13:27;13.70;99.90
36716;DHT22;22699;51.034;3.730;2023-02-18T12:18:55;13.20;99.90
36716;DHT22;22699;51.034;3.730;2023-02-18T12:24:40;13.10;99.90
36716;DHT22;22699;51.034;3.730;2023-02-18T12:27:52;13.00;99.90
36716;DHT22;22699;51.034;3.730;2023-02-18T12:33:37;12.80;99.90
36716;DHT22;22699;51.034;3.730;2023-02-18T12:36:35;12.80;99.90
36716;DHT22;22699;51.034;3.730;2023-02-18T12:42:13;13.10;99.90
36716;DHT22;22699;51.034;3.730;2023-02-18T12:45:07;13.00;99.90
36716;DHT22;22699;51.034;3.730;2023-02-18T12:48:10;13.10;99.90
36716;DHT22;22699;51.034;3.730;2023-02-18T12:53:41;12.70;99.90
36716;DHT22;22699;51.034;3.730;2023-02-18T13:10:09;12.70;99.90
36716;DHT22;22699;51.034;3.730;2023-02-18T13:12:55;12.70;99.90
36716;DHT22;22699;51.034;3.730;2023-02-18T13:15:43;12.70;99.90
36716;DHT22;22699;51.034;3.730;2023-02-18T13:18:27;12.60;99.90
36716;DHT22;22699;51.034;3.730;2023-02-18T13:20:58;12.70;99.90
36716;DHT22;22699;51.034;3.730;2023-02-18T13:23:26;12.70;99.90
36716;DHT22;22699;51.034;3.730;2023-02-18T13:25:59;12.80;99.90
36716;DHT22;22699;51.034;3.730;2023-02-18T13:28:34;12.70;99.90
36716;DHT22;22699;51.034;3.730;2023-02-18T13:34:14;12.80;99.90
36716;DHT22;22699;51.034;3.730;2023-02-18T13:37:02;12.90;99.90
36716;DHT22;22699;51.034;3.730;2023-02-18T13:39:33;12.90;99.90
36716;DHT22;22699;51.034;3.730;2023-02-18T13:42:33;13.10;99.90
36716;DHT22;22699;51.034;3.730;2023-02-18T13:45:05;12.90;99.90
36716;DHT22;22699;51.034;3.730;2023-02-18T13:47:42;12.80;99.90
36716;DHT22;22699;51.034;3.730;2023-02-18T13:55:59;12.90;99.90
36716;DHT22;22699;51.034;3.730;2023-02-18T13:58:34;12.80;99.90
36716;DHT22;22699;51.034;3.730;2023-02-18T14:01:12;12.80;99.90
36716;DHT22;22699;51.034;3.730;2023-02-18T14:06:17;12.80;99.90
36716;DHT22;22699;51.034;3.730;2023-02-18T14:08:43;12.70;99.90
36716;DHT22;22699;51.034;3.730;2023-02-18T14:16:25;12.90;99.90
36716;DHT22;22699;51.034;3.730;2023-02-18T14:18:58;12.90;99.90
36716;DHT22;22699;51.034;3.730;2023-02-18T14:21:38;12.80;99.90
36716;DHT22;22699;51.034;3.730;2023-02-18T14:24:06;12.60;99.90
36716;DHT22;22699;51.034;3.730;2023-02-18T14:26:39;12.60;99.90
36716;DHT22;22699;51.034;3.730;2023-02-18T14:29:25;12.50;99.90
36716;DHT22;22699;51.034;3.730;2023-02-18T14:32:03;12.50;99.90
36716;DHT22;22699;51.034;3.730;2023-02-18T14:37:22;12.40;99.90
36716;DHT22;22699;51.034;3.730;2023-02-18T14:45:32;12.40;99.90
36716;DHT22;22699;51.034;3.730;2023-02-18T14:50:45;12.50;99.90
36716;DHT22;22699;51.034;3.730;2023-02-18T14:53:23;12.50;99.90
36716;DHT22;22699;51.034;3.730;2023-02-18T14:55:54;12.50;99.90
36716;DHT22;22699;51.034;3.730;2023-02-18T14:58:31;12.40;99.90
36716;DHT22;22699;51.034;3.730;2023-02-18T15:03:40;12.60;99.90
36716;DHT22;22699;51.034;3.730;2023-02-18T15:06:24;12.60;99.90
36716;DHT22;22699;51.034;3.730;2023-02-18T15:08:52;12.40;99.90
36716;DHT22;22699;51.034;3.730;2023-02-18T15:11:22;12.30;99.90
36716;DHT22;22699;51.034;3.730;2023-02-18T15:13:48;12.50;99.90
36716;DHT22;22699;51.034;3.730;2023-02-18T15:16:30;12.50;99.90
36716;DHT22;22699;51.034;3.730;2023-02-18T15:19:12;12.70;99.90
36716;DHT22;22699;51.034;3.730;2023-02-18T15:21:42;12.60;99.90
36716;DHT22;22699;51.034;3.730;2023-02-18T15:24:30;12.50;99.90
36716;DHT22;22699;51.034;3.730;2023-02-18T15:26:59;12.60;99.90
36716;DHT22;22699;51.034;3.730;2023-02-18T15:29:32;12.40;99.90
36716;DHT22;22699;51.034;3.730;2023-02-18T15:32:16;12.50;99.90
36716;DHT22;22699;51.034;3.730;2023-02-18T15:34:43;12.50;99.90
36716;DHT22;22699;51.034;3.730;2023-02-18T15:37:12;12.50;99.90
36716;DHT22;22699;51.034;3.730;2023-02-18T15:39:38;12.40;99.90
36716;DHT22;22699;51.034;3.730;2023-02-18T15:42:16;12.40;99.90
36716;DHT22;22699;51.034;3.730;2023-02-18T15:44:50;12.40;99.90
36716;DHT22;22699;51.034;3.730;2023-02-18T15:47:17;12.30;99.90
36716;DHT22;22699;51.034;3.730;2023-02-18T15:49:54;12.20;99.90
36716;DHT22;22699;51.034;3.730;2023-02-18T15:52:33;12.30;99.90
36716;DHT22;22699;51.034;3.730;2023-02-18T15:55:06;12.40;99.90
36716;DHT22;22699;51.034;3.730;2023-02-18T15:57:33;12.50;99.90
36716;DHT22;22699;51.034;3.730;2023-02-18T16:02:32;12.50;99.90
36716;DHT22;22699;51.034;3.730;2023-02-18T16:05:00;12.70;99.90
36716;DHT22;22699;51.034;3.730;2023-02-18T16:07:36;12.60;99.90
36716;DHT22;22699;51.034;3.730;2023-02-18T16:10:18;12.60;99.90
36716;DHT22;22699;51.034;3.730;2023-02-18T16:12:46;12.50;99.90
36716;DHT22;22699;51.034;3.730;2023-02-18T16:15:24;12.40;99.90
36716;DHT22;22699;51.034;3.730;2023-02-18T16:17:52;12.50;99.90
36716;DHT22;22699;51.034;3.730;2023-02-18T16:22:52;12.30;99.90
36716;DHT22;22699;51.034;3.730;2023-02-18T16:25:23;12.40;99.90
36716;DHT22;22699;51.034;3.730;2023-02-18T16:30:19;12.50;99.90
36716;DHT22;22699;51.034;3.730;2023-02-18T16:32:45;12.20;99.90
36716;DHT22;22699;51.034;3.730;2023-02-18T16:35:11;12.10;99.90
36716;DHT22;22699;51.034;3.730;2023-02-18T16:37:38;12.10;99.90
36716;DHT22;22699;51.034;3.730;2023-02-18T16:42:52;12.10;99.90
36716;DHT22;22699;51.034;3.730;2023-02-18T16:45:19;12.00;99.90
36716;DHT22;22699;51.034;3.730;2023-02-18T16:47:48;12.10;99.90
36716;DHT22;22699;51.034;3.730;2023-02-18T16:50:19;12.10;99.90
36716;DHT22;22699;51.034;3.730;2023-02-18T16:52:45;12.10;99.90
36716;DHT22;22699;51.034;3.730;2023-02-18T16:55:19;12.20;99.90
36716;DHT22;22699;51.034;3.730;2023-02-18T16:57:46;12.10;99.90
36716;DHT22;22699;51.034;3.730;2023-02-18T17:00:12;12.10;99.90
36716;DHT22;22699;51.034;3.730;2023-02-18T17:02:38;12.00;99.90
36716;DHT22;22699;51.034;3.730;2023-02-18T17:05:04;12.00;99.90
36716;DHT22;22699;51.034;3.730;2023-02-18T17:07:30;12.00;99.90
36716;DHT22;22699;51.034;3.730;2023-02-18T17:09:58;11.90;99.90
36716;DHT22;22699;51.034;3.730;2023-02-18T17:12:24;12.00;99.90
36716;DHT22;22699;51.034;3.730;2023-02-18T17:14:50;11.90;99.90
36716;DHT22;22699;51.034;3.730;2023-02-18T17:17:16;12.00;99.90
36716;DHT22;22699;51.034;3.730;2023-02-18T17:19:49;12.00;99.90
36716;DHT22;22699;51.034;3.730;2023-02-18T17:22:14;12.00;99.90
36716;DHT22;22699;51.034;3.730;2023-02-18T17:24:40;11.90;99.90
36716;DHT22;22699;51.034;3.730;2023-02-18T17:27:07;11.90;99.90
36716;DHT22;22699;51.034;3.730;2023-02-18T17:29:33;11.80;99.90
36716;DHT22;22699;51.034;3.730;2023-02-18T17:31:58;11.90;99.90
36716;DHT22;22699;51.034;3.730;2023-02-18T17:34:28;11.90;99.90
36716;DHT22;22699;51.034;3.730;2023-02-18T17:36:55;12.00;99.90
36716;DHT22;22699;51.034;3.730;2023-02-18T17:39:21;12.00;99.90
36716;DHT22;22699;51.034;3.730;2023-02-18T17:41:47;11.90;99.90
36716;DHT22;22699;51.034;3.730;2023-02-18T17:44:19;12.00;99.90
36716;DHT22;22699;51.034;3.730;2023-02-18T17:46:45;12.10;99.90
36716;DHT22;22699;51.034;3.730;2023-02-18T17:49:11;12.10;99.90
36716;DHT22;22699;51.034;3.730;2023-02-18T17:51:38;12.10;99.90
36716;DHT22;22699;51.034;3.730;2023-02-18T17:54:15;11.90;99.90
36716;DHT22;22699;51.034;3.730;2023-02-18T17:56:43;11.80;99.90
36716;DHT22;22699;51.034;3.730;2023-02-18T17:59:09;11.80;99.90
36716;DHT22;22699;51.034;3.730;2023-02-18T18:01:35;11.80;99.90
36716;DHT22;22699;51.034;3.730;2023-02-18T18:04:01;11.70;99.90
36716;DHT22;22699;51.034;3.730;2023-02-18T18:06:26;11.80;99.90
36716;DHT22;22699;51.034;3.730;2023-02-18T18:08:57;11.80;99.90
36716;DHT22;22699;51.034;3.730;2023-02-18T18:11:23;11.80;99.90
36716;DHT22;22699;51.034;3.730;2023-02-18T18:13:50;11.80;99.90
36716;DHT22;22699;51.034;3.730;2023-02-18T18:16:18;11.80;99.90
36716;DHT22;22699;51.034;3.730;2023-02-18T18:18:44;11.80;99.90
36716;DHT22;22699;51.034;3.730;2023-02-18T18:21:23;11.70;99.90
36716;DHT22;22699;51.034;3.730;2023-02-18T18:23:52;11.80;99.90
36716;DHT22;22699;51.034;3.730;2023-02-18T18:26:18;11.70;99.90
36716;DHT22;22699;51.034;3.730;2023-02-18T18:28:44;11.70;99.90
36716;DHT22;22699;51.034;3.730;2023-02-18T18:31:14;11.70;99.90
36716;DHT22;22699;51.034;3.730;2023-02-18T18:33:46;11.60;99.90
36716;DHT22;22699;51.034;3.730;2023-02-18T18:36:18;11.60;99.90
36716;DHT22;22699;51.034;3.730;2023-02-18T18:38:45;11.70;99.90
36716;DHT22;22699;51.034;3.730;2023-02-18T18:41:16;11.60;99.90
36716;DHT22;22699;51.034;3.730;2023-02-18T18:43:42;11.70;99.90
36716;DHT22;22699;51.034;3.730;2023-02-18T18:46:08;11.60;99.90
36716;DHT22;22699;51.034;3.730;2023-02-18T18:48:35;11.60;99.90
36716;DHT22;22699;51.034;3.730;2023-02-18T18:51:02;11.60;99.90
36716;DHT22;22699;51.034;3.730;2023-02-18T18:53:30;11.60;99.90
36716;DHT22;22699;51.034;3.730;2023-02-18T18:55:58;11.60;99.90
36716;DHT22;22699;51.034;3.730;2023-02-18T18:58:24;11.50;99.90
36716;DHT22;22699;51.034;3.730;2023-02-18T19:00:56;11.60;99.90